createdAt,value
2019-03-17T00:01:35.344Z,55.30
2019-03-17T00:04:07.099Z,48.10
2019-03-17T00:06:37.458Z,54.05
2019-03-17T00:09:07.986Z,46.98
2019-03-17T00:11:38.233Z,48.40
2019-03-17T00:14:08.495Z,52.83
2019-03-17T00:16:39.409Z,51.90
2019-03-17T00:19:09.781Z,63.63
2019-03-17T00:21:40.067Z,60.58
2019-03-17T00:24:10.257Z,53.48
2019-03-17T00:26:43.686Z,56.98
2019-03-17T00:29:13.907Z,64.07
2019-03-17T00:31:44.164Z,57.35
2019-03-17T00:34:14.378Z,66.77
2019-03-17T00:36:44.805Z,68.67
2019-03-17T00:39:15.953Z,73.25
2019-03-17T00:41:46.372Z,57.75
2019-03-17T00:44:16.584Z,68.10
2019-03-17T00:46:46.820Z,67.50
2019-03-17T00:49:17.119Z,65.35
2019-03-17T00:51:47.316Z,68.30
2019-03-17T00:54:17.625Z,63.50
2019-03-17T00:56:47.886Z,66.55
2019-03-17T00:59:19.731Z,59.10
2019-03-17T01:01:49.976Z,56.73
2019-03-17T01:04:20.230Z,58.48
2019-03-17T01:06:52.023Z,60.65
2019-03-17T01:09:22.410Z,60.00
2019-03-17T01:11:52.600Z,59.65
2019-03-17T01:14:22.849Z,49.88
2019-03-17T01:16:53.045Z,51.88
2019-03-17T01:19:23.263Z,51.13
2019-03-17T01:21:53.522Z,51.25
2019-03-17T01:24:23.752Z,44.65
2019-03-17T01:26:56.662Z,54.70
2019-03-17T01:29:26.885Z,51.18
2019-03-17T01:31:57.072Z,55.63
2019-03-17T01:34:27.317Z,51.00
2019-03-17T01:36:57.527Z,51.18
2019-03-17T01:39:27.807Z,51.23
2019-03-17T01:41:58.070Z,59.42
2019-03-17T01:44:28.285Z,56.08
2019-03-17T01:46:58.486Z,49.95
2019-03-17T01:49:28.695Z,47.10
2019-03-17T01:51:58.877Z,41.92
2019-03-17T01:54:32.257Z,43.25
2019-03-17T01:57:02.444Z,69.40
2019-03-17T01:59:33.489Z,50.92
2019-03-17T02:02:03.670Z,52.13
2019-03-17T02:04:33.903Z,56.88
2019-03-17T02:07:05.683Z,45.78
2019-03-17T02:09:35.892Z,46.08
2019-03-17T02:12:06.266Z,45.10
2019-03-17T02:14:36.488Z,49.58
2019-03-17T02:17:07.573Z,46.68
2019-03-17T02:19:37.875Z,49.35
2019-03-17T02:22:08.099Z,42.95
2019-03-17T02:24:38.952Z,45.58
2019-03-17T02:27:09.175Z,40.33
2019-03-17T02:29:39.379Z,40.50
2019-03-17T02:32:11.189Z,42.25
2019-03-17T02:34:41.371Z,39.27
2019-03-17T02:37:11.583Z,40.73
2019-03-17T02:39:41.796Z,40.43
2019-03-17T02:42:12.092Z,43.73
2019-03-17T02:44:42.296Z,39.58
2019-03-17T02:47:12.596Z,43.10
2019-03-17T02:49:42.915Z,37.15
2019-03-17T02:52:13.100Z,50.60
2019-03-17T02:54:43.296Z,44.42
2019-03-17T02:57:13.524Z,40.80
2019-03-17T02:59:43.702Z,41.63
2019-03-17T03:02:13.898Z,43.60
2019-03-17T03:04:44.221Z,33.90
2019-03-17T03:07:14.442Z,50.67
2019-03-17T03:09:44.626Z,38.67
2019-03-17T03:12:14.834Z,42.88
2019-03-17T03:14:45.045Z,41.60
2019-03-17T03:17:15.434Z,40.80
2019-03-17T03:19:45.715Z,29.42
2019-03-17T03:22:15.927Z,30.90
2019-03-17T03:24:46.137Z,24.72
2019-03-17T03:27:16.346Z,37.80
2019-03-17T03:29:46.573Z,37.67
2019-03-17T03:32:16.792Z,28.52
2019-03-17T03:34:47.062Z,31.17
2019-03-17T03:37:17.246Z,39.83
2019-03-17T03:39:47.451Z,43.45
2019-03-17T03:42:17.673Z,23.62
2019-03-17T03:44:47.881Z,29.77
2019-03-17T03:47:18.370Z,39.13
2019-03-17T03:49:48.566Z,42.33
2019-03-17T03:52:18.849Z,37.98
2019-03-17T03:54:49.112Z,42.40
2019-03-17T03:57:19.337Z,43.00
2019-03-17T03:59:49.532Z,40.25
2019-03-17T04:02:19.730Z,43.40
2019-03-17T04:04:49.941Z,44.53
2019-03-17T04:07:20.248Z,41.35
2019-03-17T04:09:50.911Z,48.52
2019-03-17T04:12:21.205Z,40.73
2019-03-17T04:14:51.506Z,40.73
2019-03-17T04:17:21.702Z,42.93
2019-03-17T04:19:52.117Z,43.80
2019-03-17T04:22:22.300Z,39.75
2019-03-17T04:24:52.627Z,46.30
2019-03-17T04:27:22.815Z,32.75
2019-03-17T04:29:54.600Z,38.92
2019-03-17T04:32:24.864Z,38.17
2019-03-17T04:34:55.157Z,38.05
2019-03-17T04:37:25.468Z,40.95
2019-03-17T04:39:57.282Z,37.08
2019-03-17T04:42:27.553Z,37.75
2019-03-17T04:44:59.296Z,37.58
2019-03-17T04:47:29.496Z,32.17
2019-03-17T04:49:59.734Z,30.95
2019-03-17T04:52:29.922Z,38.15
2019-03-17T04:55:00.381Z,36.10
2019-03-17T04:57:30.658Z,34.60
2019-03-17T05:00:00.892Z,28.87
2019-03-17T05:02:31.076Z,35.65
2019-03-17T05:05:01.297Z,32.25
2019-03-17T05:07:31.505Z,46.45
2019-03-17T05:10:04.767Z,34.65
2019-03-17T05:12:36.555Z,43.40
2019-03-17T05:15:09.187Z,37.88
2019-03-17T05:17:39.478Z,55.33
2019-03-17T05:20:10.466Z,44.25
2019-03-17T05:22:40.788Z,41.75
2019-03-17T05:25:11.118Z,43.10
2019-03-17T05:27:41.347Z,50.03
2019-03-17T05:30:12.218Z,35.38
2019-03-17T05:32:43.366Z,48.42
2019-03-17T05:35:13.664Z,39.40
2019-03-17T05:37:44.698Z,46.83
2019-03-17T05:40:15.257Z,39.18
2019-03-17T05:42:45.454Z,38.85
2019-03-17T05:45:15.659Z,42.38
2019-03-17T05:47:45.937Z,38.08
2019-03-17T05:50:16.253Z,28.98
2019-03-17T05:52:46.520Z,39.08
2019-03-17T05:55:16.777Z,38.45
2019-03-17T05:57:46.980Z,36.73
2019-03-17T06:00:18.715Z,33.38
2019-03-17T06:02:50.481Z,40.12
2019-03-17T06:05:20.764Z,42.33
2019-03-17T06:07:50.971Z,43.87
2019-03-17T06:10:22.788Z,38.78
2019-03-17T06:12:53.015Z,40.23
2019-03-17T06:15:23.219Z,38.92
2019-03-17T06:17:53.430Z,42.03
2019-03-17T06:20:23.671Z,39.67
2019-03-17T06:22:55.438Z,46.18
2019-03-17T06:25:25.731Z,45.95
2019-03-17T06:27:55.921Z,40.25
2019-03-17T06:30:26.143Z,31.02
2019-03-17T06:32:56.420Z,36.53
2019-03-17T06:35:26.695Z,37.00
2019-03-17T06:37:56.922Z,36.45
2019-03-17T06:40:27.096Z,38.10
2019-03-17T06:42:57.323Z,40.83
2019-03-17T06:45:29.086Z,37.58
2019-03-17T06:47:59.300Z,38.50
2019-03-17T06:50:29.525Z,30.27
2019-03-17T06:52:59.790Z,36.38
2019-03-17T06:55:30.027Z,33.18
2019-03-17T06:58:00.522Z,31.90
2019-03-17T07:00:30.726Z,36.20
2019-03-17T07:03:00.949Z,32.65
2019-03-17T07:05:31.127Z,33.60
2019-03-17T07:08:01.320Z,16.77
2019-03-17T07:10:31.563Z,29.00
2019-03-17T07:13:01.861Z,31.70
2019-03-17T07:15:32.079Z,29.98
2019-03-17T07:18:02.272Z,23.60
2019-03-17T07:20:32.487Z,26.37
2019-03-17T07:23:04.360Z,30.72
2019-03-17T07:25:34.549Z,25.12
2019-03-17T07:28:04.753Z,27.95
2019-03-17T07:30:34.989Z,30.50
2019-03-17T07:33:05.229Z,23.45
2019-03-17T07:35:35.441Z,27.30
2019-03-17T07:38:05.672Z,30.40
2019-03-17T07:40:35.911Z,20.55
2019-03-17T07:43:06.197Z,24.75
2019-03-17T07:45:36.470Z,27.48
2019-03-17T07:48:07.515Z,20.77
2019-03-17T07:50:37.837Z,28.90
2019-03-17T07:53:09.637Z,27.80
2019-03-17T07:55:41.440Z,27.85
2019-03-17T07:58:11.633Z,25.80
2019-03-17T08:00:41.986Z,25.88
2019-03-17T08:03:12.217Z,27.05
2019-03-17T08:05:42.495Z,26.33
2019-03-17T08:08:12.755Z,25.23
2019-03-17T08:10:42.963Z,23.00
2019-03-17T08:13:13.167Z,19.67
2019-03-17T08:15:43.389Z,23.20
2019-03-17T08:18:13.581Z,24.32
2019-03-17T08:20:43.764Z,20.15
2019-03-17T08:23:14.364Z,23.52
2019-03-17T08:25:44.617Z,20.15
2019-03-17T08:28:14.877Z,19.32
2019-03-17T08:30:53.104Z,23.83
2019-03-17T08:33:19.488Z,20.80
2019-03-17T08:35:49.738Z,21.45
2019-03-17T08:38:22.264Z,20.23
2019-03-17T08:40:51.928Z,18.67
2019-03-17T08:43:22.120Z,19.15
2019-03-17T08:45:52.341Z,15.88
2019-03-17T08:48:22.603Z,19.87
2019-03-17T08:50:52.837Z,19.25
2019-03-17T08:53:23.154Z,15.03
2019-03-17T08:55:53.472Z,18.35
2019-03-17T08:58:23.727Z,19.10
2019-03-17T09:00:55.500Z,18.00
2019-03-17T09:03:25.701Z,18.80
2019-03-17T09:05:56.400Z,18.37
2019-03-17T09:08:34.887Z,17.50
2019-03-17T09:10:58.624Z,17.42
2019-03-17T09:13:28.868Z,16.80
2019-03-17T09:15:59.084Z,18.00
2019-03-17T09:18:29.296Z,17.50
2019-03-17T09:20:59.537Z,18.07
2019-03-17T09:23:29.852Z,13.88
2019-03-17T09:25:59.772Z,16.35
2019-03-17T09:28:30.817Z,16.70
2019-03-17T09:31:04.561Z,15.55
2019-03-17T09:33:33.184Z,15.00
2019-03-17T09:36:03.418Z,14.87
2019-03-17T09:38:46.847Z,14.47
2019-03-17T09:41:08.917Z,15.55
2019-03-17T09:43:39.122Z,13.62
2019-03-17T09:46:11.756Z,13.75
2019-03-17T09:48:41.949Z,15.75
2019-03-17T09:51:12.210Z,15.55
2019-03-17T09:53:42.567Z,14.00
2019-03-17T09:56:12.808Z,16.62
2019-03-17T09:58:45.523Z,17.30
2019-03-17T10:01:14.935Z,17.07
2019-03-17T10:03:45.131Z,17.82
2019-03-17T10:06:15.346Z,18.40
2019-03-17T10:08:45.558Z,18.17
2019-03-17T10:11:15.747Z,20.08
2019-03-17T10:13:46.005Z,18.67
2019-03-17T10:16:16.385Z,15.68
2019-03-17T10:18:46.577Z,16.15
2019-03-17T10:21:16.809Z,19.52
2019-03-17T10:23:47.011Z,17.73
2019-03-17T10:26:17.235Z,19.73
2019-03-17T10:28:47.446Z,20.27
2019-03-17T10:31:17.671Z,18.07
2019-03-17T10:33:47.902Z,25.40
2019-03-17T10:36:18.089Z,16.77
2019-03-17T10:38:48.360Z,17.75
2019-03-17T10:41:20.176Z,18.12
2019-03-17T10:43:50.381Z,20.95
2019-03-17T10:46:20.610Z,19.65
2019-03-17T10:48:50.820Z,19.57
2019-03-17T10:51:21.119Z,20.72
2019-03-17T10:53:51.343Z,22.25
2019-03-17T10:56:21.558Z,19.57
2019-03-17T10:58:51.871Z,20.20
2019-03-17T11:01:22.064Z,19.87
2019-03-17T11:03:52.302Z,18.02
2019-03-17T11:06:22.489Z,17.70
2019-03-17T11:08:52.816Z,17.00
2019-03-17T11:11:23.008Z,17.67
2019-03-17T11:13:53.357Z,18.77
2019-03-17T11:16:23.552Z,18.48
2019-03-17T11:18:53.757Z,17.98
2019-03-17T11:21:23.976Z,18.42
2019-03-17T11:23:54.193Z,17.87
2019-03-17T11:26:24.483Z,17.40
2019-03-17T11:28:54.695Z,16.80
2019-03-17T11:31:24.923Z,18.95
2019-03-17T11:33:55.230Z,18.00
2019-03-17T11:36:25.539Z,17.05
2019-03-17T11:38:55.788Z,18.10
2019-03-17T11:41:25.976Z,17.05
2019-03-17T11:43:56.207Z,20.27
2019-03-17T11:46:26.400Z,17.42
2019-03-17T11:48:56.649Z,18.42
2019-03-17T11:51:26.921Z,19.40
2019-03-17T11:53:57.147Z,19.75
2019-03-17T11:56:28.917Z,19.85
2019-03-17T11:58:59.304Z,17.82
2019-03-17T12:01:29.601Z,19.67
2019-03-17T12:03:59.863Z,18.60
2019-03-17T12:06:30.123Z,19.07
2019-03-17T12:09:04.303Z,18.52
2019-03-17T12:11:33.944Z,18.55
2019-03-17T12:14:04.283Z,18.85
2019-03-17T12:16:34.519Z,18.57
2019-03-17T12:19:04.703Z,18.73
2019-03-17T12:21:34.928Z,18.37
2019-03-17T12:24:05.150Z,18.20
2019-03-17T12:26:35.414Z,19.37
2019-03-17T12:29:05.632Z,19.57
2019-03-17T12:31:35.923Z,19.15
2019-03-17T12:34:06.121Z,17.30
2019-03-17T12:36:36.344Z,16.82
2019-03-17T12:39:06.927Z,17.67
2019-03-17T12:41:38.364Z,17.05
2019-03-17T12:44:08.902Z,17.42
2019-03-17T12:46:40.734Z,18.55
2019-03-17T12:49:10.956Z,18.23
2019-03-17T12:51:41.248Z,17.17
2019-03-17T12:54:13.114Z,16.55
2019-03-17T12:56:43.317Z,16.97
2019-03-17T12:59:13.662Z,17.62
2019-03-17T13:01:43.903Z,16.77
2019-03-17T13:04:14.100Z,18.82
2019-03-17T13:06:44.332Z,19.02
2019-03-17T13:09:18.699Z,18.23
2019-03-17T13:11:50.470Z,18.75
2019-03-17T13:14:20.733Z,13.72
2019-03-17T13:16:50.999Z,18.57
2019-03-17T13:19:21.195Z,19.10
2019-03-17T13:21:51.495Z,19.50
2019-03-17T13:24:21.732Z,19.42
2019-03-17T13:26:51.929Z,19.20
2019-03-17T13:29:22.160Z,18.85
2019-03-17T13:31:52.358Z,18.02
2019-03-17T13:34:22.583Z,18.12
2019-03-17T13:36:52.878Z,18.52
2019-03-17T13:39:24.044Z,16.62
2019-03-17T13:41:55.802Z,15.85
2019-03-17T13:44:26.164Z,8.70
2019-03-17T13:46:56.384Z,9.33
2019-03-17T13:49:26.591Z,9.03
2019-03-17T13:51:56.796Z,8.28
2019-03-17T13:54:28.548Z,7.97
2019-03-17T13:56:58.845Z,8.63
2019-03-17T13:59:29.031Z,8.55
2019-03-17T14:01:59.248Z,7.30
2019-03-17T14:04:29.482Z,7.30
2019-03-17T14:07:01.276Z,7.70
2019-03-17T14:09:31.484Z,5.35
2019-03-17T14:12:01.688Z,8.58
2019-03-17T14:14:32.069Z,8.95
2019-03-17T14:17:02.345Z,7.60
2019-03-17T14:19:32.556Z,8.80
2019-03-17T14:22:02.799Z,7.70
2019-03-17T14:24:33.000Z,5.40
2019-03-17T14:27:03.251Z,10.00
2019-03-17T14:29:33.503Z,10.35
2019-03-17T14:32:03.767Z,8.80
2019-03-17T14:34:33.987Z,8.90
2019-03-17T14:37:04.213Z,9.33
2019-03-17T14:39:34.415Z,8.83
2019-03-17T14:42:06.312Z,7.67
2019-03-17T14:44:36.501Z,9.20
2019-03-17T14:47:06.804Z,8.05
2019-03-17T14:49:37.025Z,5.55
2019-03-17T14:52:07.225Z,5.83
2019-03-17T14:54:37.455Z,7.15
2019-03-17T14:57:07.680Z,6.62
2019-03-17T14:59:37.993Z,7.35
2019-03-17T15:02:08.396Z,7.75
2019-03-17T15:04:40.989Z,5.95
2019-03-17T15:07:12.144Z,7.30
2019-03-17T15:09:43.891Z,6.87
2019-03-17T15:12:14.088Z,6.62
2019-03-17T15:14:44.339Z,7.47
2019-03-17T15:17:14.605Z,8.20
2019-03-17T15:19:44.831Z,8.15
2019-03-17T15:22:15.015Z,7.67
2019-03-17T15:24:45.247Z,8.10
2019-03-17T15:27:15.512Z,7.03
2019-03-17T15:29:46.097Z,4.90
2019-03-17T15:32:16.323Z,6.87
2019-03-17T15:34:46.496Z,6.78
2019-03-17T15:37:16.285Z,5.42
2019-03-17T15:39:46.640Z,5.72
2019-03-17T15:42:19.295Z,6.55
2019-03-17T15:44:48.944Z,6.17
2019-03-17T15:47:19.131Z,5.87
2019-03-17T15:49:49.352Z,5.92
2019-03-17T15:52:21.155Z,6.03
2019-03-17T15:54:51.348Z,5.80
2019-03-17T15:57:21.570Z,5.90
2019-03-17T15:59:51.793Z,5.85
2019-03-17T16:02:22.106Z,5.90
2019-03-17T16:04:52.379Z,5.87
2019-03-17T16:07:22.662Z,5.92
2019-03-17T16:09:54.440Z,5.70
2019-03-17T16:12:24.707Z,4.20
2019-03-17T16:14:54.915Z,4.83
2019-03-17T16:17:25.110Z,5.28
2019-03-17T16:19:55.357Z,5.20
2019-03-17T16:22:25.654Z,4.55
2019-03-17T16:24:56.005Z,4.53
2019-03-17T16:27:27.779Z,3.95
2019-03-17T16:29:57.984Z,3.62
2019-03-17T16:32:28.187Z,4.45
2019-03-17T16:34:58.406Z,3.58
2019-03-17T16:37:28.628Z,4.12
2019-03-17T16:39:58.802Z,3.67
2019-03-17T16:42:29.035Z,4.35
2019-03-17T16:44:59.220Z,3.75
2019-03-17T16:47:29.447Z,3.65
2019-03-17T16:49:59.644Z,3.85
2019-03-17T16:52:29.842Z,3.70
2019-03-17T16:55:00.051Z,3.65
2019-03-17T16:57:30.267Z,4.37
2019-03-17T17:00:00.580Z,3.33
2019-03-17T17:02:30.824Z,3.47
2019-03-17T17:05:01.151Z,3.40
2019-03-17T17:07:31.364Z,3.30
2019-03-17T17:10:01.584Z,3.08
2019-03-17T17:12:31.854Z,4.75
2019-03-17T17:15:02.159Z,3.30
2019-03-17T17:17:32.375Z,3.42
2019-03-17T17:20:02.590Z,2.77
2019-03-17T17:22:34.417Z,2.70
2019-03-17T17:25:06.503Z,2.90
2019-03-17T17:27:36.737Z,3.70
2019-03-17T17:30:12.965Z,2.95
2019-03-17T17:32:43.561Z,3.30
2019-03-17T17:35:15.305Z,3.62
2019-03-17T17:37:45.523Z,3.50
2019-03-17T17:40:17.828Z,6.15
2019-03-17T17:42:49.699Z,3.40
2019-03-17T17:45:24.109Z,3.67
2019-03-17T17:47:55.923Z,3.42
2019-03-17T17:50:28.664Z,3.15
2019-03-17T17:52:58.886Z,3.62
2019-03-17T17:55:29.108Z,2.67
2019-03-17T17:57:59.331Z,3.72
2019-03-17T18:00:40.250Z,3.33
2019-03-17T18:03:10.501Z,3.10
2019-03-17T18:05:40.800Z,3.50
2019-03-17T18:08:11.047Z,3.10
2019-03-17T18:10:41.234Z,3.20
2019-03-17T18:13:13.036Z,2.95
2019-03-17T18:15:43.220Z,3.47
2019-03-17T18:18:13.456Z,3.60
2019-03-17T18:20:43.680Z,3.47
2019-03-17T18:23:18.261Z,3.40
2019-03-17T18:25:45.886Z,3.72
2019-03-17T18:28:16.097Z,4.05
2019-03-17T18:30:46.309Z,3.15
2019-03-17T18:33:16.539Z,5.00
2019-03-17T18:35:46.735Z,3.65
2019-03-17T18:38:17.029Z,3.70
2019-03-17T18:40:47.217Z,3.30
2019-03-17T18:43:17.446Z,3.85
2019-03-17T18:45:47.684Z,4.30
2019-03-17T18:48:18.160Z,4.03
2019-03-17T18:50:48.611Z,3.60
2019-03-17T18:53:19.680Z,3.20
2019-03-17T18:55:49.904Z,3.77
2019-03-17T18:58:20.114Z,3.33
2019-03-17T19:00:50.333Z,3.47
2019-03-17T19:03:20.700Z,3.58
2019-03-17T19:05:50.904Z,3.70
2019-03-17T19:08:21.159Z,3.92
2019-03-17T19:10:51.369Z,3.33
2019-03-17T19:13:21.570Z,3.15
2019-03-17T19:15:51.830Z,3.60
2019-03-17T19:18:23.654Z,3.80
2019-03-17T19:20:54.129Z,3.80
2019-03-17T19:23:24.400Z,3.98
2019-03-17T19:25:54.617Z,3.12
2019-03-17T19:28:24.841Z,3.50
2019-03-17T19:30:55.063Z,3.92
2019-03-17T19:33:25.645Z,4.10
2019-03-17T19:35:55.864Z,3.58
2019-03-17T19:38:26.056Z,3.95
2019-03-17T19:40:56.314Z,4.20
2019-03-17T19:43:26.535Z,4.22
2019-03-17T19:46:00.543Z,3.80
2019-03-17T19:48:30.252Z,4.33
2019-03-17T19:51:00.452Z,4.87
2019-03-17T19:53:30.656Z,4.28
2019-03-17T19:56:00.900Z,5.17
2019-03-17T19:58:31.082Z,4.90
2019-03-17T20:01:01.319Z,5.40
2019-03-17T20:03:33.255Z,4.05
2019-03-17T20:06:03.526Z,4.33
2019-03-17T20:08:33.848Z,5.33
2019-03-17T20:11:04.364Z,4.92
2019-03-17T20:13:34.559Z,4.78
2019-03-17T20:16:04.877Z,4.45
2019-03-17T20:18:36.641Z,4.85
2019-03-17T20:21:07.035Z,4.28
2019-03-17T20:23:37.299Z,4.65
2019-03-17T20:26:07.524Z,4.58
2019-03-17T20:28:37.741Z,4.83
2019-03-17T20:31:07.981Z,6.28
2019-03-17T20:33:38.264Z,5.03
2019-03-17T20:36:09.706Z,4.58
2019-03-17T20:38:39.909Z,5.28
2019-03-17T20:41:10.132Z,5.28
2019-03-17T20:43:40.356Z,4.92
2019-03-17T20:46:10.581Z,4.97
2019-03-17T20:48:40.817Z,4.15
2019-03-17T20:51:11.019Z,4.95
2019-03-17T20:53:41.292Z,5.58
2019-03-17T20:56:11.789Z,4.70
2019-03-17T20:58:42.120Z,5.20
2019-03-17T21:01:12.504Z,5.30
2019-03-17T21:03:42.707Z,4.67
2019-03-17T21:06:12.961Z,5.33
2019-03-17T21:08:43.209Z,5.67
2019-03-17T21:11:13.464Z,4.85
2019-03-17T21:13:47.020Z,5.37
2019-03-17T21:16:15.621Z,4.60
2019-03-17T21:18:45.803Z,4.45
2019-03-17T21:21:15.974Z,5.05
2019-03-17T21:23:47.041Z,4.47
2019-03-17T21:26:18.856Z,4.28
2019-03-17T21:28:49.162Z,5.12
2019-03-17T21:31:19.342Z,4.83
2019-03-17T21:33:49.593Z,5.17
2019-03-17T21:36:19.801Z,4.75
2019-03-17T21:38:50.045Z,4.42
2019-03-17T21:41:20.303Z,5.22
2019-03-17T21:43:59.290Z,4.45
2019-03-17T21:46:22.503Z,5.60
2019-03-17T21:48:52.716Z,4.95
2019-03-17T21:51:22.976Z,5.30
2019-03-17T21:53:53.194Z,5.33
2019-03-17T21:56:23.401Z,5.33
2019-03-17T21:58:55.228Z,6.08
2019-03-17T22:01:25.681Z,5.75
2019-03-17T22:03:55.950Z,7.72
2019-03-17T22:06:26.160Z,8.85
2019-03-17T22:08:56.563Z,9.58
2019-03-17T22:11:26.919Z,10.20
2019-03-17T22:13:57.106Z,10.40
2019-03-17T22:16:29.730Z,11.55
2019-03-17T22:19:02.717Z,17.05
2019-03-17T22:21:32.915Z,13.28
2019-03-17T22:24:03.163Z,14.80
2019-03-17T22:26:33.346Z,16.05
2019-03-17T22:29:05.095Z,18.02
2019-03-17T22:31:35.417Z,16.15
2019-03-17T22:34:08.127Z,17.67
2019-03-17T22:36:37.584Z,22.32
2019-03-17T22:39:07.768Z,13.35
2019-03-17T22:41:37.991Z,13.08
2019-03-17T22:44:08.206Z,13.35
2019-03-17T22:46:38.527Z,12.65
2019-03-17T22:49:08.871Z,13.20
2019-03-17T22:51:39.163Z,15.18
2019-03-17T22:54:10.999Z,15.10
2019-03-17T22:56:41.200Z,8.60
2019-03-17T22:59:11.476Z,4.37
2019-03-17T23:01:41.691Z,3.30
2019-03-17T23:04:11.875Z,9.53
2019-03-17T23:06:42.105Z,2.40
2019-03-17T23:09:12.575Z,2.58
2019-03-17T23:11:42.752Z,2.27
2019-03-17T23:14:12.971Z,2.40
2019-03-17T23:16:43.183Z,2.40
2019-03-17T23:19:13.443Z,2.72
2019-03-17T23:21:43.785Z,1.77
2019-03-17T23:24:14.031Z,1.72
2019-03-17T23:26:45.959Z,2.02
2019-03-17T23:29:16.179Z,2.60
2019-03-17T23:31:46.373Z,1.80
2019-03-17T23:34:16.825Z,1.50
2019-03-17T23:36:47.124Z,1.62
2019-03-17T23:39:17.894Z,1.70
2019-03-17T23:41:48.110Z,2.15
2019-03-17T23:44:18.350Z,1.72
2019-03-17T23:46:48.563Z,1.80
2019-03-17T23:49:18.896Z,1.70
2019-03-17T23:51:49.099Z,1.30
2019-03-17T23:54:20.890Z,2.52
2019-03-17T23:56:51.163Z,0.85
2019-03-17T23:59:21.421Z,0.50
